createdAt,value
2023-01-17T00:02:04.319Z,98224.47
2023-01-17T00:05:25.882Z,98228.59
2023-01-17T00:08:46.804Z,98225.84
2023-01-17T00:11:49.568Z,98224.09
2023-01-17T00:14:54.586Z,98217.59
2023-01-17T00:17:58.022Z,98219.19
2023-01-17T00:21:35.893Z,98201.69
2023-01-17T00:24:57.416Z,98204.44
2023-01-17T00:28:00.158Z,98215.34
2023-01-17T00:31:04.060Z,98210.81
2023-01-17T00:34:06.364Z,98200.72
2023-01-17T00:37:08.893Z,98206.31
2023-01-17T00:40:11.537Z,98191.69
2023-01-17T00:43:36.788Z,98198.59
2023-01-17T00:46:57.648Z,98195.34
2023-01-17T00:50:18.847Z,98208.16
2023-01-17T00:53:39.839Z,98207.53
2023-01-17T00:57:01.200Z,98208.00
2023-01-17T01:00:23.651Z,98203.16
2023-01-17T01:03:44.806Z,98197.66
2023-01-17T01:07:05.872Z,98209.00
2023-01-17T01:10:27.870Z,98207.25
2023-01-17T01:13:50.849Z,98201.91
2023-01-17T01:17:11.750Z,98199.34
2023-01-17T01:20:32.526Z,98204.00
2023-01-17T01:23:54.262Z,98184.56
2023-01-17T01:27:15.106Z,98195.09
2023-01-17T01:30:36.396Z,98201.87
2023-01-17T01:33:39.034Z,98211.66
2023-01-17T01:36:41.655Z,98208.19
2023-01-17T01:39:44.080Z,98207.25
2023-01-17T01:42:57.439Z,98216.16
2023-01-17T01:45:59.814Z,98212.28
2023-01-17T01:49:29.672Z,98228.16
2023-01-17T01:52:34.751Z,98234.91
2023-01-17T01:55:40.881Z,98210.28
2023-01-17T01:58:49.396Z,98205.53
2023-01-17T02:01:55.364Z,98189.69
2023-01-17T02:04:59.777Z,98189.72
2023-01-17T02:08:08.326Z,98172.72
2023-01-17T02:11:11.666Z,98161.38
2023-01-17T02:14:18.492Z,98173.22
2023-01-17T02:17:29.991Z,98166.59
2023-01-17T02:20:57.220Z,98175.34
2023-01-17T02:24:15.197Z,98171.28
2023-01-17T02:27:55.838Z,98176.78
2023-01-17T02:31:08.994Z,98177.09
2023-01-17T02:34:25.246Z,98172.88
2023-01-17T02:37:49.177Z,98158.31
2023-01-17T02:41:07.889Z,98170.47
2023-01-17T02:44:15.379Z,98172.72
2023-01-17T02:47:28.041Z,98140.28
2023-01-17T02:51:03.074Z,98163.34
2023-01-17T02:54:28.356Z,98145.84
2023-01-17T02:57:37.114Z,98140.03
2023-01-17T03:00:57.950Z,98129.31
2023-01-17T03:04:50.182Z,98103.06
2023-01-17T03:07:53.808Z,98110.03
2023-01-17T03:10:57.426Z,98105.19
2023-01-17T03:13:59.900Z,98085.91
2023-01-17T03:17:02.656Z,98082.50
2023-01-17T03:20:05.476Z,98089.66
2023-01-17T03:23:08.148Z,98082.22
2023-01-17T03:26:10.517Z,98077.19
2023-01-17T03:29:13.860Z,98059.22
2023-01-17T03:32:16.139Z,98059.69
2023-01-17T03:35:18.858Z,98073.81
2023-01-17T03:38:21.209Z,98072.84
2023-01-17T03:41:23.899Z,98071.88
2023-01-17T03:44:26.300Z,98063.28
2023-01-17T03:47:28.959Z,98052.78
2023-01-17T03:50:31.470Z,98052.28
2023-01-17T03:53:34.138Z,98045.00
2023-01-17T03:56:36.486Z,98031.84
2023-01-17T03:59:39.138Z,98031.22
2023-01-17T04:02:41.616Z,98036.09
2023-01-17T04:05:44.268Z,98038.50
2023-01-17T04:08:46.629Z,98046.44
2023-01-17T04:11:50.959Z,98047.56
2023-01-17T04:14:53.469Z,98034.63
2023-01-17T04:17:56.601Z,98036.22
2023-01-17T04:20:58.913Z,98042.72
2023-01-17T04:24:01.542Z,98030.06
2023-01-17T04:27:07.068Z,98040.13
2023-01-17T04:30:10.485Z,98042.87
2023-01-17T04:33:12.863Z,98048.75
2023-01-17T04:36:15.513Z,98043.72
2023-01-17T04:39:17.935Z,98045.81
2023-01-17T04:42:20.578Z,98031.22
2023-01-17T04:45:23.176Z,98030.59
2023-01-17T04:48:27.263Z,98031.41
2023-01-17T04:51:29.654Z,98029.94
2023-01-17T04:54:32.324Z,98028.94
2023-01-17T04:57:34.870Z,98029.94
2023-01-17T05:00:37.490Z,98032.53
2023-01-17T05:03:39.925Z,98036.25
2023-01-17T05:06:43.257Z,98038.19
2023-01-17T05:09:45.654Z,98033.50
2023-01-17T05:12:59.176Z,98042.25
2023-01-17T05:16:01.519Z,98043.72
2023-01-17T05:19:04.320Z,98031.25
2023-01-17T05:22:14.877Z,98032.84
2023-01-17T05:25:17.667Z,98028.78
2023-01-17T05:28:20.014Z,98037.56
2023-01-17T05:31:22.754Z,98033.03
2023-01-17T05:34:25.246Z,98034.97
2023-01-17T05:37:27.844Z,98038.53
2023-01-17T05:40:32.954Z,98028.94
2023-01-17T05:43:35.585Z,98042.72
2023-01-17T05:46:37.999Z,98046.97
2023-01-17T05:49:40.675Z,98043.72
2023-01-17T05:52:49.777Z,98045.19
2023-01-17T05:55:52.773Z,98065.13
2023-01-17T05:58:55.222Z,98078.88
2023-01-17T06:01:58.205Z,98069.31
2023-01-17T06:05:03.271Z,98093.13
2023-01-17T06:08:06.050Z,98086.00
2023-01-17T06:11:08.819Z,98102.72
2023-01-17T06:14:11.222Z,98095.06
2023-01-17T06:17:13.835Z,98104.13
2023-01-17T06:20:16.254Z,98104.97
2023-01-17T06:23:19.052Z,98103.81
2023-01-17T06:26:21.418Z,98105.94
2023-01-17T06:29:24.133Z,98102.50
2023-01-17T06:32:26.471Z,98107.06
2023-01-17T06:35:29.583Z,98100.91
2023-01-17T06:38:34.833Z,98107.69
2023-01-17T06:41:37.701Z,98100.84
2023-01-17T06:44:40.034Z,98110.25
2023-01-17T06:47:42.953Z,98131.66
2023-01-17T06:50:46.733Z,98140.19
2023-01-17T06:53:49.450Z,98150.22
2023-01-17T06:56:51.892Z,98161.94
2023-01-17T06:59:54.522Z,98162.09
2023-01-17T07:02:56.851Z,98165.00
2023-01-17T07:06:02.203Z,98169.53
2023-01-17T07:09:04.797Z,98177.50
2023-01-17T07:12:07.729Z,98194.19
2023-01-17T07:15:11.194Z,98198.06
2023-01-17T07:18:14.739Z,98199.69
2023-01-17T07:21:17.277Z,98202.94
2023-01-17T07:24:21.479Z,98211.69
2023-01-17T07:27:24.819Z,98209.09
2023-01-17T07:30:27.818Z,98227.22
2023-01-17T07:33:30.166Z,98220.09
2023-01-17T07:36:33.434Z,98230.50
2023-01-17T07:39:37.328Z,98230.16
2023-01-17T07:42:40.012Z,98237.00
2023-01-17T07:45:50.736Z,98232.69
2023-01-17T07:48:53.422Z,98246.94
2023-01-17T07:51:55.812Z,98267.34
2023-01-17T07:54:58.613Z,98276.53
2023-01-17T07:58:02.947Z,98290.88
2023-01-17T08:01:09.152Z,98277.97
2023-01-17T08:04:11.952Z,98292.16
2023-01-17T08:07:14.536Z,98298.16
2023-01-17T08:10:19.964Z,98303.31
2023-01-17T08:13:22.512Z,98307.88
2023-01-17T08:16:25.758Z,98314.34
2023-01-17T08:19:28.111Z,98321.03
2023-01-17T08:22:31.107Z,98311.75
2023-01-17T08:25:35.382Z,98320.72
2023-01-17T08:28:38.149Z,98322.16
2023-01-17T08:31:40.668Z,98325.78
2023-01-17T08:34:43.350Z,98325.38
2023-01-17T08:37:46.340Z,98319.56
2023-01-17T08:40:49.142Z,98340.72
2023-01-17T08:43:52.126Z,98355.03
2023-01-17T08:46:54.760Z,98337.81
2023-01-17T08:49:59.644Z,98353.59
2023-01-17T08:53:02.307Z,98355.44
2023-01-17T08:56:05.798Z,98354.19
2023-01-17T08:59:11.895Z,98360.81
2023-01-17T09:02:15.791Z,98355.31
2023-01-17T09:05:18.451Z,98349.44
2023-01-17T09:08:20.927Z,98354.31
2023-01-17T09:11:23.583Z,98333.13
2023-01-17T09:14:25.971Z,98343.34
2023-01-17T09:17:29.085Z,98346.59
2023-01-17T09:20:31.697Z,98358.00
2023-01-17T09:23:34.301Z,98353.66
2023-01-17T09:26:36.683Z,98364.00
2023-01-17T09:29:39.315Z,98352.63
2023-01-17T09:32:41.759Z,98364.53
2023-01-17T09:35:45.084Z,98367.28
2023-01-17T09:38:47.987Z,98385.66
2023-01-17T09:42:26.156Z,98388.75
2023-01-17T09:45:31.982Z,98391.34
2023-01-17T09:48:38.789Z,98391.84
2023-01-17T09:51:42.448Z,98395.25
2023-01-17T09:54:48.089Z,98403.56
2023-01-17T09:58:10.137Z,98421.09
2023-01-17T10:01:31.676Z,98409.38
2023-01-17T10:04:58.616Z,98415.06
2023-01-17T10:08:16.661Z,98411.16
2023-01-17T10:11:40.147Z,98422.87
2023-01-17T10:15:03.174Z,98427.25
2023-01-17T10:18:30.377Z,98423.19
2023-01-17T10:22:02.345Z,98426.78
2023-01-17T10:25:23.224Z,98429.69
2023-01-17T10:28:33.565Z,98435.41
2023-01-17T10:31:51.204Z,98431.16
2023-01-17T10:34:53.697Z,98424.00
2023-01-17T10:37:58.521Z,98417.84
2023-01-17T10:41:21.970Z,98423.03
2023-01-17T10:44:35.437Z,98418.13
2023-01-17T10:47:39.504Z,98397.12
2023-01-17T10:51:04.945Z,98393.44
2023-01-17T10:54:24.218Z,98386.44
2023-01-17T10:57:28.195Z,98395.81
2023-01-17T11:00:52.393Z,98392.72
2023-01-17T11:03:55.423Z,98384.53
2023-01-17T11:07:24.725Z,98363.03
2023-01-17T11:10:48.968Z,98371.34
2023-01-17T11:13:53.332Z,98360.94
2023-01-17T11:17:04.612Z,98339.31
2023-01-17T11:20:35.257Z,98356.84
2023-01-17T11:23:41.228Z,98351.88
2023-01-17T11:26:49.573Z,98352.63
2023-01-17T11:30:07.642Z,98352.31
2023-01-17T11:33:45.348Z,98342.44
2023-01-17T11:36:50.055Z,98344.75
2023-01-17T11:40:08.134Z,98320.66
2023-01-17T11:43:18.724Z,98324.37
2023-01-17T11:46:21.882Z,98313.97
2023-01-17T11:49:25.553Z,98307.88
2023-01-17T11:52:37.587Z,98316.66
2023-01-17T11:55:40.843Z,98321.41
2023-01-17T11:58:45.899Z,98319.38
2023-01-17T12:02:01.199Z,98311.53
2023-01-17T12:05:15.370Z,98337.59
2023-01-17T12:08:20.810Z,98351.19
2023-01-17T12:12:07.285Z,98359.69
2023-01-17T12:15:21.393Z,98353.56
2023-01-17T12:18:33.562Z,98359.63
2023-01-17T12:21:46.630Z,98357.19
2023-01-17T12:24:52.305Z,98353.41
2023-01-17T12:28:06.493Z,98358.69
2023-01-17T12:31:44.687Z,98346.41
2023-01-17T12:34:57.308Z,98351.66
2023-01-17T12:38:11.398Z,98346.06
2023-01-17T12:41:30.416Z,98343.75
2023-01-17T12:45:07.561Z,98350.69
2023-01-17T12:48:16.691Z,98355.28
2023-01-17T12:51:29.032Z,98356.84
2023-01-17T12:54:39.797Z,98351.09
2023-01-17T12:57:47.797Z,98336.66
2023-01-17T13:00:59.711Z,98346.78
2023-01-17T13:04:09.056Z,98340.75
2023-01-17T13:07:33.067Z,98346.63
2023-01-17T13:10:58.773Z,98343.66
2023-01-17T13:14:02.361Z,98338.69
2023-01-17T13:17:22.543Z,98333.19
2023-01-17T13:20:58.304Z,98335.34
2023-01-17T13:24:03.900Z,98328.97
2023-01-17T13:27:12.684Z,98337.09
2023-01-17T13:30:34.605Z,98342.50
2023-01-17T13:33:47.800Z,98351.94
2023-01-17T13:37:00.727Z,98343.69
2023-01-17T13:40:05.710Z,98354.87
2023-01-17T13:43:22.193Z,98341.72
2023-01-17T13:46:24.569Z,98340.25
2023-01-17T13:49:34.693Z,98320.91
2023-01-17T13:52:38.255Z,98328.72
2023-01-17T13:55:46.827Z,98317.56
2023-01-17T13:58:54.540Z,98314.00
2023-01-17T14:01:57.720Z,98303.28
2023-01-17T14:05:32.097Z,98310.09
2023-01-17T14:08:38.770Z,98297.28
2023-01-17T14:12:09.115Z,98294.41
2023-01-17T14:15:23.008Z,98277.66
2023-01-17T14:18:38.129Z,98267.88
2023-01-17T14:21:40.673Z,98255.69
2023-01-17T14:25:00.990Z,98247.09
2023-01-17T14:28:19.031Z,98249.41
2023-01-17T14:31:24.300Z,98250.81
2023-01-17T14:34:26.836Z,98241.09
2023-01-17T14:37:46.568Z,98235.06
2023-01-17T14:41:02.726Z,98213.97
2023-01-17T14:44:05.402Z,98217.69
2023-01-17T14:47:13.895Z,98211.16
2023-01-17T14:50:23.677Z,98218.16
2023-01-17T14:53:31.687Z,98221.91
2023-01-17T14:56:34.472Z,98213.31
2023-01-17T14:59:36.798Z,98208.59
2023-01-17T15:02:44.179Z,98193.03
2023-01-17T15:05:51.033Z,98198.88
2023-01-17T15:08:54.268Z,98187.53
2023-01-17T15:11:58.097Z,98197.72
2023-01-17T15:15:01.666Z,98194.00
2023-01-17T15:18:27.590Z,98209.25
2023-01-17T15:21:35.494Z,98209.59
2023-01-17T15:24:43.481Z,98192.25
2023-01-17T15:27:46.072Z,98191.44
2023-01-17T15:31:03.752Z,98198.03
2023-01-17T15:34:14.123Z,98186.37
2023-01-17T15:37:40.663Z,98196.59
2023-01-17T15:40:43.719Z,98187.47
2023-01-17T15:43:46.403Z,98181.97
2023-01-17T15:46:49.130Z,98174.81
2023-01-17T15:49:52.198Z,98179.03
2023-01-17T15:53:06.034Z,98168.22
2023-01-17T15:56:31.940Z,98155.56
2023-01-17T15:59:50.471Z,98158.59
2023-01-17T16:02:59.038Z,98161.34
2023-01-17T16:06:03.046Z,98142.88
2023-01-17T16:09:22.355Z,98153.06
2023-01-17T16:12:25.056Z,98134.09
2023-01-17T16:15:28.877Z,98144.66
2023-01-17T16:18:31.673Z,98146.59
2023-01-17T16:21:34.125Z,98146.28
2023-01-17T16:24:37.238Z,98136.88
2023-01-17T16:27:41.504Z,98146.28
2023-01-17T16:30:45.177Z,98130.53
2023-01-17T16:33:49.473Z,98132.50
2023-01-17T16:36:54.444Z,98121.91
2023-01-17T16:39:57.117Z,98114.56
2023-01-17T16:43:01.114Z,98117.53
2023-01-17T16:46:03.628Z,98119.16
2023-01-17T16:49:06.439Z,98113.16
2023-01-17T16:52:08.902Z,98108.78
2023-01-17T16:55:15.031Z,98105.38
2023-01-17T16:58:20.440Z,98102.50
2023-01-17T17:01:23.683Z,98095.25
2023-01-17T17:04:26.127Z,98103.53
2023-01-17T17:07:28.831Z,98096.06
2023-01-17T17:10:31.552Z,98095.47
2023-01-17T17:13:36.031Z,98088.31
2023-01-17T17:16:39.140Z,98081.22
2023-01-17T17:19:41.855Z,98073.78
2023-01-17T17:22:50.294Z,98066.50
2023-01-17T17:25:56.894Z,98067.16
2023-01-17T17:28:59.335Z,98059.88
2023-01-17T17:32:02.111Z,98058.25
2023-01-17T17:35:05.223Z,98054.03
2023-01-17T17:38:08.010Z,98042.84
2023-01-17T17:41:10.377Z,98034.91
2023-01-17T17:44:13.238Z,98026.19
2023-01-17T17:47:16.175Z,98032.16
2023-01-17T17:50:18.969Z,98019.19
2023-01-17T17:53:21.791Z,97993.09
2023-01-17T17:56:24.582Z,97998.09
2023-01-17T17:59:27.015Z,97991.16
2023-01-17T18:02:31.619Z,97997.94
2023-01-17T18:05:34.392Z,97992.59
2023-01-17T18:08:38.487Z,97968.28
2023-01-17T18:11:43.342Z,97951.94
2023-01-17T18:14:45.714Z,97940.59
2023-01-17T18:17:52.496Z,97944.63
2023-01-17T18:20:55.048Z,97934.25
2023-01-17T18:24:00.308Z,97924.38
2023-01-17T18:27:02.857Z,97923.22
2023-01-17T18:30:06.150Z,97907.84
2023-01-17T18:33:09.852Z,97904.78
2023-01-17T18:36:13.353Z,97908.03
2023-01-17T18:39:27.291Z,97889.69
2023-01-17T18:42:31.152Z,97876.22
2023-01-17T18:45:33.517Z,97896.66
2023-01-17T18:48:37.182Z,97888.22
2023-01-17T18:51:39.571Z,97879.31
2023-01-17T18:54:42.276Z,97869.28
2023-01-17T18:57:44.710Z,97854.72
2023-01-17T19:00:50.330Z,97866.22
2023-01-17T19:03:56.386Z,97858.09
2023-01-17T19:06:59.014Z,97838.38
2023-01-17T19:10:02.130Z,97840.12
2023-01-17T19:13:04.855Z,97831.22
2023-01-17T19:16:09.709Z,97828.66
2023-01-17T19:19:14.812Z,97816.00
2023-01-17T19:22:17.752Z,97822.50
2023-01-17T19:25:21.192Z,97812.63
2023-01-17T19:28:23.781Z,97808.13
2023-01-17T19:31:28.562Z,97798.72
2023-01-17T19:34:31.325Z,97789.84
2023-01-17T19:37:34.318Z,97800.69
2023-01-17T19:40:36.895Z,97788.22
2023-01-17T19:43:39.881Z,97780.63
2023-01-17T19:46:42.418Z,97765.72
2023-01-17T19:49:45.695Z,97761.72
2023-01-17T19:52:48.178Z,97745.50
2023-01-17T19:55:51.089Z,97734.34
2023-01-17T19:58:54.042Z,97736.28
2023-01-17T20:01:59.446Z,97713.44
2023-01-17T20:05:02.545Z,97713.31
2023-01-17T20:08:05.026Z,97724.78
2023-01-17T20:11:10.896Z,97730.63
2023-01-17T20:14:14.993Z,97724.19
2023-01-17T20:17:17.841Z,97727.75
2023-01-17T20:20:22.806Z,97733.59
2023-01-17T20:23:25.597Z,97722.91
2023-01-17T20:26:36.769Z,97726.78
2023-01-17T20:29:40.766Z,97731.81
2023-01-17T20:32:43.110Z,97726.78
2023-01-17T20:35:46.260Z,97731.97
2023-01-17T20:38:49.097Z,97719.06
2023-01-17T20:41:52.110Z,97715.81
2023-01-17T20:44:54.480Z,97707.56
2023-01-17T20:47:57.477Z,97716.16
2023-01-17T20:51:10.561Z,97724.88
2023-01-17T20:54:17.852Z,97712.91
2023-01-17T20:57:20.281Z,97681.06
2023-01-17T21:00:22.978Z,97643.53
2023-01-17T21:03:29.615Z,97635.00
2023-01-17T21:06:32.290Z,97647.63
2023-01-17T21:09:34.713Z,97677.22
2023-01-17T21:12:37.521Z,97661.53
2023-01-17T21:15:48.099Z,97625.34
2023-01-17T21:18:52.326Z,97595.56
2023-01-17T21:21:56.271Z,97592.84
2023-01-17T21:25:00.309Z,97602.06
2023-01-17T21:28:05.915Z,97618.38
2023-01-17T21:31:20.451Z,97609.97
2023-01-17T21:34:25.459Z,97598.00
2023-01-17T21:37:28.297Z,97600.91
2023-01-17T21:40:31.233Z,97569.59
2023-01-17T21:43:34.418Z,97561.19
2023-01-17T21:46:39.218Z,97556.66
2023-01-17T21:49:41.930Z,97570.41
2023-01-17T21:52:46.517Z,97585.09
2023-01-17T21:56:08.825Z,97567.50
2023-01-17T21:59:11.178Z,97543.09
2023-01-17T22:02:13.851Z,97546.66
2023-01-17T22:05:18.028Z,97547.78
2023-01-17T22:08:20.669Z,97562.34
2023-01-17T22:11:25.890Z,97552.63
2023-01-17T22:14:28.234Z,97523.72
2023-01-17T22:17:30.982Z,97520.00
2023-01-17T22:20:34.210Z,97534.22
2023-01-17T22:23:36.848Z,97535.66
2023-01-17T22:26:41.808Z,97529.38
2023-01-17T22:29:44.575Z,97524.84
2023-01-17T22:32:46.999Z,97523.53
2023-01-17T22:35:57.791Z,97513.88
2023-01-17T22:39:00.904Z,97530.47
2023-01-17T22:42:03.682Z,97536.47
2023-01-17T22:45:07.835Z,97518.69
2023-01-17T22:48:10.650Z,97556.84
2023-01-17T22:51:15.374Z,97561.03
2023-01-17T22:54:19.421Z,97560.56
2023-01-17T22:57:23.242Z,97554.72
2023-01-17T23:00:25.945Z,97536.47
2023-01-17T23:03:28.400Z,97540.00
2023-01-17T23:06:36.986Z,97539.66
2023-01-17T23:09:39.261Z,97529.66
2023-01-17T23:12:41.995Z,97550.97
2023-01-17T23:16:02.962Z,97571.00
2023-01-17T23:19:23.911Z,97553.87
2023-01-17T23:22:29.125Z,97560.47
2023-01-17T23:25:31.702Z,97564.00
2023-01-17T23:28:34.211Z,97559.00
2023-01-17T23:31:36.864Z,97565.12
2023-01-17T23:34:39.214Z,97561.59
2023-01-17T23:38:00.684Z,97580.19
2023-01-17T23:41:24.727Z,97559.28
2023-01-17T23:44:31.682Z,97555.09
2023-01-17T23:47:34.119Z,97562.19
2023-01-17T23:50:41.760Z,97546.50
2023-01-17T23:53:44.049Z,97553.47
2023-01-17T23:56:46.684Z,97568.00
2023-01-17T23:59:49.033Z,97560.72
